Time;durP1;ratioP1;P1;durP2;ratioP2;P2;SDS_P1;SDS_P2;PMS_P1;PMS_P2;Temp;Humidity;BMP_temperature;BMP_pressure;BME280_temperature;BME280_humidity;BME280_pressure;Samples;Min_cycle;Max_cycle;Signal;HPM_P1;HPM_P2
2022/09/16 00:00:26;;;;;;;4.30;2.00;;;;;13.40;100675.00;;;;13032120;22;20195;-73
2022/09/16 00:05:27;;;;;;;7.03;1.60;;;;;13.30;100685.00;;;;13090780;22;20175;-73
2022/09/16 00:10:28;;;;;;;7.23;1.30;;;;;13.20;100675.00;;;;13016097;22;20187;-73
2022/09/16 00:15:29;;;;;;;6.53;1.50;;;;;13.10;100671.00;;;;13015608;22;20172;-73
2022/09/16 00:20:30;;;;;;;5.77;1.37;;;;;13.00;100683.00;;;;13039328;22;20241;-73
2022/09/16 00:25:32;;;;;;;5.60;1.30;;;;;12.90;100673.00;;;;13065771;22;20768;-73
2022/09/16 00:30:34;;;;;;;2.90;1.30;;;;;12.80;100665.00;;;;13041240;22;20696;-73
2022/09/16 00:35:35;;;;;;;3.60;1.20;;;;;12.70;100677.00;;;;13038077;22;20171;-73
2022/09/16 00:40:46;;;;;;;9.27;1.63;;;;;12.70;100665.00;;;;13017470;22;20195;-73
2022/09/16 00:45:55;;;;;;;5.47;1.47;;;;;12.60;100681.00;;;;13043291;22;20172;-73
2022/09/16 00:51:00;;;;;;;3.20;1.20;;;;;12.60;100678.00;;;;13016629;22;20658;-73
2022/09/16 00:56:05;;;;;;;8.73;2.00;;;;;12.50;100674.00;;;;13090959;22;20164;-73
2022/09/16 01:01:07;;;;;;;9.17;2.17;;;;;12.50;100678.00;;;;13064118;22;20188;-73
2022/09/16 01:06:10;;;;;;;4.53;1.77;;;;;12.40;100685.00;;;;13117112;22;20160;-74
2022/09/16 01:11:11;;;;;;;8.83;2.00;;;;;12.30;100675.00;;;;13089383;22;20681;-74
2022/09/16 01:16:41;;;;;;;6.47;1.90;;;;;12.30;100676.00;;;;13013884;22;20175;-74
2022/09/16 01:21:44;;;;;;;6.03;1.70;;;;;12.30;100676.00;;;;13089346;22;20584;-74
2022/09/16 01:27:04;;;;;;;7.03;2.20;;;;;12.20;100676.00;;;;13041234;22;20250;-74
2022/09/16 01:32:22;;;;;;;7.43;2.00;;;;;12.20;100675.00;;;;13041645;22;20171;-74
2022/09/16 01:37:38;;;;;;;4.73;1.70;;;;;12.10;100668.00;;;;13039590;22;20175;-74
2022/09/16 01:42:56;;;;;;;4.17;1.57;;;;;12.20;100664.00;;;;13014659;22;20525;-74
2022/09/16 01:48:03;;;;;;;4.60;1.63;;;;;12.20;100675.00;;;;13058718;22;20179;-74
2022/09/16 01:53:08;;;;;;;9.20;1.53;;;;;12.20;100672.00;;;;13039369;22;20190;-74
2022/09/16 01:58:25;;;;;;;5.90;2.37;;;;;12.20;100671.00;;;;13116201;22;20425;-74
2022/09/16 02:03:32;;;;;;;8.07;2.17;;;;;12.30;100662.00;;;;13064844;22;20803;-74
2022/09/16 02:08:52;;;;;;;4.00;1.47;;;;;12.40;100681.00;;;;13061505;22;20175;-74
2022/09/16 02:14:02;;;;;;;4.73;1.90;;;;;12.60;100680.00;;;;13015025;22;20275;-74
2022/09/16 02:19:20;;;;;;;9.77;2.07;;;;;12.70;100676.00;;;;13036301;22;20163;-74
2022/09/16 02:24:23;;;;;;;5.53;1.63;;;;;12.80;100675.00;;;;13054811;22;20482;-74
2022/09/16 02:29:28;;;;;;;5.43;1.40;;;;;12.80;100669.00;;;;13064276;22;20303;-74
2022/09/16 02:34:36;;;;;;;3.93;1.30;;;;;12.90;100671.00;;;;13017258;22;20176;-74
2022/09/16 02:39:39;;;;;;;6.33;1.30;;;;;12.90;100676.00;;;;13042886;22;20807;-74
2022/09/16 02:44:42;;;;;;;2.73;1.20;;;;;12.90;100671.00;;;;13089699;22;20163;-74
2022/09/16 02:49:52;;;;;;;6.83;1.20;;;;;12.90;100664.00;;;;13016338;22;20183;-74
2022/09/16 02:55:12;;;;;;;7.30;1.70;;;;;12.90;100676.00;;;;13063484;22;20160;-74
2022/09/16 03:00:13;;;;;;;5.43;1.57;;;;;12.90;100672.00;;;;13042285;22;20199;-74
2022/09/16 03:05:14;;;;;;;9.07;1.60;;;;;12.90;100682.00;;;;13042465;22;20175;-74
2022/09/16 03:10:16;;;;;;;5.13;1.10;;;;;12.90;100676.00;;;;13042682;22;20274;-74
2022/09/16 03:15:26;;;;;;;4.07;1.20;;;;;12.70;100675.00;;;;13062156;22;20164;-74
2022/09/16 03:20:46;;;;;;;3.67;1.03;;;;;12.40;100667.00;;;;13042789;22;20191;-74
2022/09/16 03:26:00;;;;;;;4.47;1.03;;;;;12.30;100667.00;;;;13017716;22;20257;-74
2022/09/16 03:31:25;;;;;;;6.10;1.47;;;;;12.30;100666.00;;;;13017689;22;20692;-74
2022/09/16 03:36:33;;;;;;;3.33;1.10;;;;;12.20;100664.00;;;;13063521;22;20242;-74
2022/09/16 03:41:35;;;;;;;2.57;1.17;;;;;12.00;100656.00;;;;13040739;22;20194;-74
2022/09/16 03:46:36;;;;;;;6.93;1.80;;;;;11.90;100661.00;;;;13062844;22;20164;-74
2022/09/16 03:51:38;;;;;;;5.30;1.03;;;;;11.90;100661.00;;;;13063061;22;20159;-74
2022/09/16 03:56:39;;;;;;;4.13;1.23;;;;;11.80;100668.00;;;;13016532;22;20216;-74
2022/09/16 04:01:40;;;;;;;3.73;1.40;;;;;11.70;100670.00;;;;13089358;22;20213;-74
2022/09/16 04:06:41;;;;;;;6.17;1.60;;;;;11.70;100671.00;;;;13042645;22;20171;-74
2022/09/16 04:11:42;;;;;;;7.57;1.73;;;;;11.70;100667.00;;;;13015071;22;20662;-74
2022/09/16 04:16:44;;;;;;;4.07;1.43;;;;;11.70;100676.00;;;;13063189;22;20461;-74
2022/09/16 04:21:46;;;;;;;9.27;1.83;;;;;11.80;100672.00;;;;13042802;22;20191;-74
2022/09/16 04:26:47;;;;;;;5.10;1.47;;;;;11.80;100671.00;;;;13062458;22;20862;-74
2022/09/16 04:31:51;;;;;;;4.87;1.37;;;;;11.90;100682.00;;;;13061872;22;20167;-74
2022/09/16 04:36:52;;;;;;;8.57;1.47;;;;;11.90;100683.00;;;;13014479;22;20744;-74
2022/09/16 04:41:53;;;;;;;5.00;1.50;;;;;12.00;100687.00;;;;13060489;22;20617;-74
2022/09/16 04:46:55;;;;;;;6.33;1.43;;;;;12.00;100681.00;;;;13016324;22;20172;-74
2022/09/16 04:51:56;;;;;;;6.60;1.50;;;;;11.90;100677.00;;;;13113382;22;20206;-74
2022/09/16 04:56:57;;;;;;;9.43;2.40;;;;;11.90;100687.00;;;;13062556;22;20169;-74
2022/09/16 05:01:59;;;;;;;8.90;2.63;;;;;11.90;100673.00;;;;13060683;22;20222;-74
2022/09/16 05:07:00;;;;;;;5.73;1.70;;;;;11.90;100682.00;;;;13062332;22;20179;-74
2022/09/16 05:12:01;;;;;;;5.30;1.63;;;;;11.90;100681.00;;;;13062800;22;20186;-74
2022/09/16 05:17:03;;;;;;;9.13;1.47;;;;;11.90;100693.00;;;;13039637;22;20180;-75
2022/09/16 05:22:06;;;;;;;7.83;2.20;;;;;11.70;100696.00;;;;13086277;22;20308;-74
2022/09/16 05:27:07;;;;;;;6.07;1.63;;;;;11.60;100704.00;;;;13106615;22;20224;-74
2022/09/16 05:32:08;;;;;;;5.97;1.90;;;;;11.50;100700.00;;;;13060364;22;20235;-74
2022/09/16 05:37:09;;;;;;;9.70;2.60;;;;;11.40;100712.00;;;;13063769;22;20175;-72
2022/09/16 05:42:10;;;;;;;9.27;2.50;;;;;11.40;100701.00;;;;13059537;22;20209;-72
2022/09/16 05:47:11;;;;;;;9.40;2.40;;;;;11.40;100702.00;;;;13080769;22;20163;-72
2022/09/16 05:52:13;;;;;;;6.83;1.93;;;;;11.30;100703.00;;;;12990271;22;20731;-72
2022/09/16 05:57:14;;;;;;;8.57;2.20;;;;;11.30;100713.00;;;;13086629;22;20167;-72
2022/09/16 06:02:15;;;;;;;3.50;1.60;;;;;11.40;100701.00;;;;13061323;22;20615;-72
2022/09/16 06:07:17;;;;;;;5.30;1.90;;;;;11.50;100708.00;;;;13062046;22;20179;-72
2022/09/16 06:12:18;;;;;;;4.70;2.13;;;;;11.60;100700.00;;;;13059751;22;20163;-72
2022/09/16 06:17:19;;;;;;;9.33;2.40;;;;;11.70;100702.00;;;;13036374;22;20174;-72
2022/09/16 06:22:20;;;;;;;6.60;2.57;;;;;11.70;100708.00;;;;13115743;22;20244;-72
2022/09/16 06:27:22;;;;;;;6.47;1.80;;;;;11.70;100717.00;;;;13055415;22;20162;-72
2022/09/16 06:32:23;;;;;;;3.33;1.60;;;;;11.70;100710.00;;;;13083786;22;20164;-72
2022/09/16 06:37:25;;;;;;;3.27;1.53;;;;;11.80;100711.00;;;;13014473;22;20200;-72
2022/09/16 06:42:27;;;;;;;9.40;2.23;;;;;12.00;100707.00;;;;13037646;22;20202;-72
2022/09/16 06:47:32;;;;;;;7.03;1.97;;;;;12.20;100709.00;;;;13061759;22;20167;-72
2022/09/16 06:52:34;;;;;;;9.57;2.53;;;;;12.20;100711.00;;;;13038797;22;20171;-72
2022/09/16 06:57:35;;;;;;;4.23;1.70;;;;;12.30;100710.00;;;;13056596;22;20654;-72
2022/09/16 07:02:37;;;;;;;6.57;2.07;;;;;12.20;100707.00;;;;13010976;22;20194;-72
2022/09/16 07:07:38;;;;;;;9.60;2.07;;;;;12.40;100710.00;;;;13086087;22;20202;-72
2022/09/16 07:12:39;;;;;;;7.23;1.77;;;;;12.60;100716.00;;;;13013300;22;20167;-72
2022/09/16 07:17:40;;;;;;;4.20;1.30;;;;;12.50;100720.00;;;;13064067;22;20167;-72
2022/09/16 07:22:42;;;;;;;4.30;1.40;;;;;12.60;100726.00;;;;13087804;22;20897;-72
2022/09/16 07:27:43;;;;;;;5.57;1.40;;;;;12.70;100730.00;;;;13016648;22;20167;-72
2022/09/16 07:32:44;;;;;;;4.17;2.30;;;;;12.90;100747.00;;;;13089528;22;20159;-72
2022/09/16 07:37:45;;;;;;;10.77;2.70;;;;;13.30;100737.00;;;;13043045;22;20228;-72
2022/09/16 07:42:46;;;;;;;8.20;1.97;;;;;13.30;100742.00;;;;13041113;22;20296;-72
2022/09/16 07:47:49;;;;;;;6.20;2.00;;;;;13.60;100744.00;;;;13042410;22;20241;-72
2022/09/16 07:52:54;;;;;;;8.37;2.30;;;;;14.20;100739.00;;;;13115257;22;20170;-72
2022/09/16 07:57:55;;;;;;;4.00;2.10;;;;;14.00;100743.00;;;;13117932;22;20259;-72
2022/09/16 08:02:56;;;;;;;5.10;1.60;;;;;13.60;100744.00;;;;13088941;22;20186;-72
2022/09/16 08:07:58;;;;;;;8.80;2.07;;;;;13.40;100725.00;;;;13067792;22;20296;-72
2022/09/16 08:12:59;;;;;;;5.80;1.40;;;;;13.30;100740.00;;;;13041555;22;20174;-72
2022/09/16 08:18:01;;;;;;;2.37;1.60;;;;;13.70;100743.00;;;;13040815;22;20270;-72
2022/09/16 08:23:02;;;;;;;8.17;1.70;;;;;14.20;100743.00;;;;13038076;22;20205;-72
2022/09/16 08:28:03;;;;;;;4.40;1.87;;;;;14.60;100744.00;;;;13064052;22;20168;-72
2022/09/16 08:33:04;;;;;;;4.30;1.50;;;;;15.00;100751.00;;;;13089541;22;20163;-72
2022/09/16 08:38:06;;;;;;;7.90;2.20;;;;;14.80;100772.00;;;;13016758;22;20163;-72
2022/09/16 08:43:23;;;;;;;2.93;1.10;;;;;14.10;100787.00;;;;13042934;22;20211;-72
2022/09/16 08:49:01;;;;;;;7.67;1.20;;;;;13.50;100797.00;;;;13015321;22;20710;-72
2022/09/16 08:54:08;;;;;;;3.80;1.27;;;;;13.40;100795.00;;;;13040816;22;20183;-72
2022/09/16 08:59:16;;;;;;;4.10;1.30;;;;;13.20;100800.00;;;;13041571;22;20164;-72
2022/09/16 09:04:18;;;;;;;3.10;1.13;;;;;13.40;100806.00;;;;13064603;22;20944;-72
2022/09/16 09:09:19;;;;;;;4.07;1.20;;;;;13.90;100802.00;;;;13039003;22;20492;-72
2022/09/16 09:14:20;;;;;;;2.90;1.20;;;;;14.60;100805.00;;;;13115331;22;20174;-72
2022/09/16 09:19:43;;;;;;;6.20;1.67;;;;;14.90;100797.00;;;;13062521;22;20186;-72
2022/09/16 09:25:06;;;;;;;4.73;0.90;;;;;15.10;100802.00;;;;13088406;22;20159;-72
2022/09/16 09:30:19;;;;;;;3.80;1.47;;;;;15.00;100802.00;;;;13041194;22;20168;-72
2022/09/16 09:35:52;;;;;;;7.40;1.30;;;;;15.80;100799.00;;;;13040997;22;20700;-72
2022/09/16 09:40:59;;;;;;;3.60;1.10;;;;;16.00;100785.00;;;;13015008;22;20713;-72
2022/09/16 09:46:15;;;;;;;1.98;0.98;;;;;15.90;100787.00;;;;13116232;22;20265;-72
2022/09/16 09:51:23;;;;;;;3.60;0.88;;;;;15.50;100784.00;;;;13041788;22;20245;-72
2022/09/16 09:56:29;;;;;;;5.25;0.93;;;;;17.00;100772.00;;;;13086327;22;20168;-73
2022/09/16 10:01:30;;;;;;;2.28;0.80;;;;;17.10;100779.00;;;;13040339;22;20841;-72
2022/09/16 10:06:34;;;;;;;2.45;0.80;;;;;17.00;100802.00;;;;13088502;22;20216;-73
2022/09/16 10:11:46;;;;;;;3.35;0.70;;;;;16.30;100795.00;;;;13087297;22;20162;-73
2022/09/16 10:16:50;;;;;;;5.53;1.05;;;;;16.80;100806.00;;;;13039615;22;20171;-73
2022/09/16 10:22:12;;;;;;;2.78;0.60;;;;;17.00;100808.00;;;;13086593;22;20205;-73
2022/09/16 10:27:20;;;;;;;2.40;0.70;;;;;16.40;100824.00;;;;13039766;22;20211;-73
2022/09/16 10:32:22;;;;;;;1.70;0.63;;;;;15.70;100800.00;;;;13061717;22;20628;-73
2022/09/16 10:37:26;;;;;;;1.73;0.60;;;;;15.60;100797.00;;;;13039361;22;20172;-73
2022/09/16 10:42:28;;;;;;;1.40;0.60;;;;;14.90;100797.00;;;;13115738;22;20187;-73
2022/09/16 10:47:31;;;;;;;2.20;0.98;;;;;14.50;100797.00;;;;13063966;22;20247;-73
2022/09/16 10:52:42;;;;;;;1.33;1.10;;;;;15.40;100788.00;;;;13063590;22;20175;-72
2022/09/16 10:57:43;;;;;;;3.22;1.45;;;;;16.00;100802.00;;;;13016325;22;20224;-72
2022/09/16 11:03:09;;;;;;;1.73;1.63;;;;;16.60;100810.00;;;;13017150;22;20198;-72
2022/09/16 11:08:22;;;;;;;2.55;1.20;;;;;18.80;100792.00;;;;13041671;22;20241;-73
2022/09/16 11:13:57;;;;;;;1.48;1.00;;;;;18.00;100816.00;;;;13089122;22;20175;-72
2022/09/16 11:19:31;;;;;;;10.13;1.23;;;;;15.70;100834.00;;;;13067356;22;20201;-73
2022/09/16 11:24:54;;;;;;;5.80;1.40;;;;;13.80;100809.00;;;;13043240;22;20221;-72
2022/09/16 11:30:12;;;;;;;4.65;1.67;;;;;14.00;100805.00;;;;13087260;22;20165;-72
2022/09/16 11:35:39;;;;;;;4.95;1.45;;;;;14.50;100809.00;;;;13068144;22;20197;-72
2022/09/16 11:40:53;;;;;;;4.75;1.40;;;;;14.70;100811.00;;;;13015361;22;20609;-72
2022/09/16 11:46:22;;;;;;;1.17;0.93;;;;;14.90;100813.00;;;;13017108;22;20854;-72
2022/09/16 11:51:48;;;;;;;2.47;1.25;;;;;16.20;100814.00;;;;13019238;22;20179;-72
2022/09/16 11:56:53;;;;;;;4.22;1.40;;;;;16.70;100828.00;;;;13040926;22;20258;-72
2022/09/16 12:02:24;;;;;;;2.08;1.00;;;;;16.50;100829.00;;;;13110245;22;20184;-72
2022/09/16 12:07:35;;;;;;;6.47;1.70;;;;;15.50;100834.00;;;;13075607;22;20195;-72
2022/09/16 12:12:43;;;;;;;2.17;0.95;;;;;15.30;100834.00;;;;13085598;22;20609;-72
2022/09/16 12:18:08;;;;;;;4.07;1.00;;;;;15.00;100839.00;;;;13039440;22;20167;-72
2022/09/16 12:23:15;;;;;;;5.03;1.23;;;;;14.10;100835.00;;;;13084263;22;20240;-72
2022/09/16 12:28:26;;;;;;;4.40;1.02;;;;;13.20;100854.00;;;;13087615;22;20182;-72
2022/09/16 12:33:33;;;;;;;2.40;0.90;;;;;12.30;100887.00;;;;13012884;22;20179;-72
2022/09/16 12:38:35;;;;;;;2.37;0.90;;;;;11.70;100887.00;;;;13012506;22;20171;-72
2022/09/16 12:43:55;;;;;;;4.10;1.27;;;;;11.40;100873.00;;;;13015359;22;20514;-72
2022/09/16 12:49:42;;;;;;;0.80;0.80;;;;;12.70;100869.00;;;;13062982;22;20651;-72
2022/09/16 12:55:22;;;;;;;2.93;0.90;;;;;13.30;100856.00;;;;13038886;22;20176;-72
2022/09/16 13:00:28;;;;;;;1.37;0.87;;;;;13.50;100856.00;;;;13039229;22;20248;-72
2022/09/16 13:05:37;;;;;;;9.07;1.50;;;;;13.70;100845.00;;;;13066045;22;20176;-71
2022/09/16 13:10:41;;;;;;;4.57;1.10;;;;;15.10;100844.00;;;;12987355;22;20199;-71
2022/09/16 13:16:05;;;;;;;3.53;0.77;;;;;15.50;100852.00;;;;13038389;22;20175;-71
2022/09/16 13:21:24;;;;;;;5.82;0.90;;;;;15.80;100838.00;;;;13113343;22;20241;-71
2022/09/16 13:26:38;;;;;;;4.10;0.98;;;;;17.50;100826.00;;;;13088710;22;20163;-72
2022/09/16 13:31:47;;;;;;;2.40;0.90;;;;;19.30;100846.00;;;;13013029;22;20170;-72
2022/09/16 13:36:48;;;;;;;3.67;0.60;;;;;16.00;100864.00;;;;13038077;22;20176;-72
2022/09/16 13:41:49;;;;;;;3.20;0.60;;;;;13.70;100857.00;;;;13087106;22;20194;-73
2022/09/16 13:46:50;;;;;;;2.93;0.90;;;;;12.80;100864.00;;;;13063211;22;20163;-73
2022/09/16 13:51:53;;;;;;;1.77;0.80;;;;;12.60;100856.00;;;;13020204;22;20660;-72
2022/09/16 13:57:08;;;;;;;5.43;1.00;;;;;13.10;100844.00;;;;13060862;22;20166;-73
2022/09/16 14:02:22;;;;;;;5.33;1.10;;;;;13.80;100820.00;;;;13082300;22;20187;-73
2022/09/16 14:07:33;;;;;;;2.37;0.80;;;;;14.50;100828.00;;;;13038433;22;20787;-72
2022/09/16 14:13:03;;;;;;;4.57;1.00;;;;;17.70;100834.00;;;;13039131;22;20511;-73
2022/09/16 14:18:05;;;;;;;4.67;0.80;;;;;17.10;100844.00;;;;13039371;22;20266;-73
2022/09/16 14:23:18;;;;;;;0.95;0.60;;;;;16.30;100838.00;;;;13064504;22;20682;-72
2022/09/16 14:28:21;;;;;;;2.35;0.60;;;;;14.40;100849.00;;;;13058375;22;20377;-72
2022/09/16 14:33:25;;;;;;;1.50;0.30;;;;;13.30;100837.00;;;;13058616;22;20174;-72
2022/09/16 14:38:36;;;;;;;0.33;0.30;;;;;14.10;100847.00;;;;13035599;22;20171;-72
2022/09/16 14:43:47;;;;;;;8.27;0.70;;;;;14.00;100837.00;;;;13086894;22;20313;-73
2022/09/16 14:48:48;;;;;;;1.47;0.40;;;;;13.60;100834.00;;;;13034698;22;20171;-72
2022/09/16 14:53:58;;;;;;;1.87;0.97;;;;;13.30;100827.00;;;;13029068;22;20171;-72
2022/09/16 14:59:14;;;;;;;1.20;0.40;;;;;13.20;100816.00;;;;13055300;22;20372;-72
2022/09/16 15:04:22;;;;;;;1.37;0.60;;;;;13.40;100805.00;;;;13031466;22;20248;-72
2022/09/16 15:09:41;;;;;;;2.80;0.77;;;;;13.70;100816.00;;;;13064600;22;20203;-72
2022/09/16 15:14:42;;;;;;;0.43;0.40;;;;;13.90;100822.00;;;;13058370;22;20170;-72
2022/09/16 15:19:49;;;;;;;1.00;0.40;;;;;13.80;100815.00;;;;13038187;22;20175;-71
2022/09/16 15:24:57;;;;;;;0.57;0.50;;;;;13.80;100823.00;;;;13039287;22;20253;-72
2022/09/16 15:30:00;;;;;;;1.70;0.40;;;;;14.30;100817.00;;;;13112669;22;20174;-72
2022/09/16 15:35:10;;;;;;;1.07;0.30;;;;;14.30;100828.00;;;;13039437;22;20170;-72
2022/09/16 15:40:24;;;;;;;2.90;0.60;;;;;13.70;100831.00;;;;13060883;22;20211;-72
2022/09/16 15:45:26;;;;;;;1.93;0.60;;;;;13.30;100836.00;;;;13062572;22;20175;-72
2022/09/16 15:50:36;;;;;;;1.47;0.50;;;;;13.80;100843.00;;;;13040640;22;20167;-72
2022/09/16 15:56:03;;;;;;;2.37;0.70;;;;;13.90;100852.00;;;;13066359;22;20179;-72
2022/09/16 16:01:14;;;;;;;1.93;0.50;;;;;13.80;100853.00;;;;13037240;22;20190;-72
2022/09/16 16:06:15;;;;;;;1.20;0.57;;;;;13.60;100858.00;;;;13086780;22;20160;-72
2022/09/16 16:11:19;;;;;;;1.73;0.40;;;;;13.30;100865.00;;;;13079602;22;20199;-72
2022/09/16 16:16:21;;;;;;;2.30;0.90;;;;;12.90;100872.00;;;;13061597;22;20209;-73
2022/09/16 16:21:22;;;;;;;2.50;0.80;;;;;12.80;100868.00;;;;13014925;22;20531;-72
2022/09/16 16:26:24;;;;;;;1.33;0.80;;;;;12.60;100882.00;;;;13116247;22;20187;-73
2022/09/16 16:31:25;;;;;;;3.57;1.10;;;;;12.30;100888.00;;;;13038773;22;20267;-72
2022/09/16 16:36:26;;;;;;;3.23;1.07;;;;;11.70;100894.00;;;;13042531;22;20170;-72
2022/09/16 16:41:30;;;;;;;3.70;1.20;;;;;11.30;100894.00;;;;13012234;22;20195;-72
2022/09/16 16:46:34;;;;;;;1.63;1.00;;;;;11.00;100905.00;;;;13064125;22;20163;-72
2022/09/16 16:51:35;;;;;;;2.17;0.70;;;;;10.80;100928.00;;;;13062785;22;20702;-72
2022/09/16 16:56:39;;;;;;;2.10;0.73;;;;;10.80;100934.00;;;;13014607;22;20172;-72
2022/09/16 17:01:41;;;;;;;3.23;0.80;;;;;10.70;100937.00;;;;13062188;22;20194;-71
2022/09/16 17:06:49;;;;;;;3.67;0.80;;;;;10.60;100927.00;;;;13116050;22;20607;-72
2022/09/16 17:12:11;;;;;;;3.00;1.00;;;;;10.40;100943.00;;;;13088626;22;20212;-72
2022/09/16 17:17:12;;;;;;;5.40;1.43;;;;;10.30;100936.00;;;;13041518;22;20246;-71
2022/09/16 17:22:14;;;;;;;6.23;1.27;;;;;10.30;100940.00;;;;13062636;22;20198;-71
2022/09/16 17:27:19;;;;;;;5.37;0.93;;;;;10.40;100942.00;;;;13039634;22;20191;-72
2022/09/16 17:32:20;;;;;;;4.33;1.10;;;;;10.60;100941.00;;;;13062832;22;20167;-72
2022/09/16 17:37:22;;;;;;;2.13;1.30;;;;;10.50;100934.00;;;;13061097;22;20163;-71
2022/09/16 17:42:23;;;;;;;2.87;0.87;;;;;10.40;100943.00;;;;13062569;22;20187;-71
2022/09/16 17:47:24;;;;;;;1.97;1.17;;;;;10.30;100944.00;;;;13040588;22;20184;-71
2022/09/16 17:52:26;;;;;;;2.60;1.23;;;;;10.20;100939.00;;;;13113889;22;20612;-71
2022/09/16 17:57:27;;;;;;;5.57;1.40;;;;;10.10;100958.00;;;;13039795;22;20700;-72
2022/09/16 18:02:35;;;;;;;5.20;1.00;;;;;10.10;100946.00;;;;13114700;22;20382;-73
2022/09/16 18:07:36;;;;;;;6.90;2.00;;;;;10.10;100953.00;;;;13014367;22;20195;-71
2022/09/16 18:12:37;;;;;;;7.70;1.50;;;;;10.20;100969.00;;;;13015651;22;20178;-72
2022/09/16 18:17:38;;;;;;;8.93;1.60;;;;;10.10;100967.00;;;;13040707;22;20167;-72
2022/09/16 18:22:40;;;;;;;6.10;1.60;;;;;10.10;100968.00;;;;13086823;22;20282;-72
2022/09/16 18:27:42;;;;;;;6.33;1.70;;;;;10.00;100976.00;;;;13062293;22;20631;-71
2022/09/16 18:32:46;;;;;;;3.63;1.40;;;;;10.00;100975.00;;;;13088923;22;20167;-72
2022/09/16 18:37:47;;;;;;;3.87;1.20;;;;;9.90;100973.00;;;;13061593;22;20196;-71
2022/09/16 18:42:48;;;;;;;4.00;1.70;;;;;9.80;100973.00;;;;13039429;22;20809;-72
2022/09/16 18:47:53;;;;;;;5.93;2.20;;;;;9.70;100973.00;;;;13060287;22;20164;-71
2022/09/16 18:52:54;;;;;;;5.17;1.30;;;;;9.70;100977.00;;;;13065704;22;20183;-72
2022/09/16 18:57:56;;;;;;;3.43;1.37;;;;;9.70;100982.00;;;;13039309;22;20164;-71
2022/09/16 19:02:57;;;;;;;7.50;1.27;;;;;9.70;100975.00;;;;13087131;22;20212;-71
2022/09/16 19:07:58;;;;;;;6.07;1.50;;;;;9.80;100973.00;;;;13063898;22;20193;-72
2022/09/16 19:13:00;;;;;;;9.30;1.60;;;;;9.80;100958.00;;;;13067329;22;20168;-72
2022/09/16 19:18:01;;;;;;;5.73;1.60;;;;;9.90;100966.00;;;;13015292;22;20168;-72
2022/09/16 19:23:02;;;;;;;5.50;1.90;;;;;9.90;100965.00;;;;13091163;22;20190;-72
2022/09/16 19:28:04;;;;;;;7.47;2.00;;;;;10.00;100960.00;;;;13015866;22;20203;-72
2022/09/16 19:33:06;;;;;;;8.77;2.27;;;;;10.00;100934.00;;;;13038965;22;20187;-72
2022/09/16 19:38:07;;;;;;;5.83;2.33;;;;;10.00;100936.00;;;;12991554;22;20171;-72
2022/09/16 19:43:08;;;;;;;7.50;1.90;;;;;9.90;100952.00;;;;13038976;22;20191;-72
2022/09/16 19:48:09;;;;;;;7.30;2.17;;;;;9.80;100954.00;;;;13042241;22;20172;-72
2022/09/16 19:53:10;;;;;;;3.67;2.00;;;;;9.70;100957.00;;;;13116627;22;20190;-72
2022/09/16 19:58:11;;;;;;;5.97;1.60;;;;;9.60;100959.00;;;;12991086;22;20203;-72
2022/09/16 20:03:12;;;;;;;7.07;1.93;;;;;9.50;100962.00;;;;13017231;22;20243;-72
2022/09/16 20:08:14;;;;;;;4.60;1.90;;;;;9.50;100961.00;;;;13015996;22;20260;-72
2022/09/16 20:13:15;;;;;;;6.60;2.03;;;;;9.50;100960.00;;;;13061988;22;20159;-72
2022/09/16 20:18:16;;;;;;;6.50;2.00;;;;;9.60;100959.00;;;;13041451;22;20275;-72
2022/09/16 20:23:17;;;;;;;9.50;2.40;;;;;9.60;100957.00;;;;13064626;22;20229;-72
2022/09/16 20:28:18;;;;;;;7.43;2.20;;;;;9.60;100950.00;;;;13041470;22;20197;-72
2022/09/16 20:33:20;;;;;;;9.57;1.80;;;;;9.60;100972.00;;;;13062898;22;20171;-72
2022/09/16 20:38:21;;;;;;;4.20;1.63;;;;;9.50;100961.00;;;;13088130;22;20174;-72
2022/09/16 20:43:22;;;;;;;6.50;1.60;;;;;9.40;100971.00;;;;13061937;22;20186;-72
2022/09/16 20:48:23;;;;;;;4.10;1.70;;;;;9.30;100967.00;;;;13088128;22;20174;-72
2022/09/16 20:53:25;;;;;;;6.33;1.33;;;;;9.20;100974.00;;;;13088529;22;20238;-72
2022/09/16 20:58:26;;;;;;;5.53;1.60;;;;;9.20;100978.00;;;;13066060;22;20195;-72
2022/09/16 21:03:27;;;;;;;4.00;1.53;;;;;9.20;100979.00;;;;13041766;22;20240;-72
2022/09/16 21:08:29;;;;;;;4.87;1.57;;;;;9.30;100991.00;;;;13015712;22;20179;-72
2022/09/16 21:13:34;;;;;;;4.57;1.33;;;;;9.40;100998.00;;;;13088622;22;20468;-73
2022/09/16 21:18:37;;;;;;;7.40;1.47;;;;;9.50;101004.00;;;;13036429;22;20658;-72
2022/09/16 21:23:39;;;;;;;7.57;2.00;;;;;9.50;101004.00;;;;13067936;22;20254;-73
2022/09/16 21:28:42;;;;;;;12.80;2.33;;;;;9.50;100997.00;;;;13040976;22;20755;-72
2022/09/16 21:33:44;;;;;;;5.67;1.50;;;;;9.50;100980.00;;;;13039723;22;20271;-72
2022/09/16 21:38:46;;;;;;;13.37;2.50;;;;;9.60;100967.00;;;;13039534;22;20217;-72
2022/09/16 21:43:50;;;;;;;9.03;1.70;;;;;9.60;100978.00;;;;13115247;22;20187;-72
2022/09/16 21:48:54;;;;;;;7.90;1.67;;;;;9.60;100972.00;;;;13039728;22;20168;-72
2022/09/16 21:53:55;;;;;;;10.13;1.93;;;;;9.60;100982.00;;;;13088150;22;20167;-72
2022/09/16 21:58:57;;;;;;;8.27;2.07;;;;;9.50;100986.00;;;;13087688;22;20171;-73
2022/09/16 22:04:02;;;;;;;8.07;2.00;;;;;9.50;100989.00;;;;13037674;22;20188;-73
2022/09/16 22:09:08;;;;;;;8.83;2.00;;;;;9.40;100979.00;;;;13061731;22;20511;-73
2022/09/16 22:14:09;;;;;;;9.77;2.30;;;;;9.40;100979.00;;;;13039844;22;20480;-73
2022/09/16 22:19:16;;;;;;;9.13;2.20;;;;;9.40;100982.00;;;;13088032;22;20591;-73
2022/09/16 22:24:20;;;;;;;8.77;2.53;;;;;9.30;100983.00;;;;13014756;22;20418;-72
2022/09/16 22:29:21;;;;;;;17.17;2.70;;;;;9.30;100987.00;;;;13061373;22;20164;-72
2022/09/16 22:34:23;;;;;;;12.10;2.13;;;;;9.30;100996.00;;;;13060730;22;20220;-72
2022/09/16 22:39:24;;;;;;;9.13;2.57;;;;;9.40;101007.00;;;;13114204;22;20164;-72
2022/09/16 22:44:25;;;;;;;10.13;2.50;;;;;9.40;100986.00;;;;13086863;22;20187;-73
2022/09/16 22:49:27;;;;;;;8.07;1.90;;;;;9.50;100998.00;;;;13041726;22;20163;-73
2022/09/16 22:54:28;;;;;;;9.53;1.67;;;;;9.50;100999.00;;;;13083015;22;20167;-72
2022/09/16 22:59:29;;;;;;;10.47;2.00;;;;;9.50;101015.00;;;;12988992;22;20262;-72
2022/09/16 23:04:30;;;;;;;9.77;2.40;;;;;9.60;101011.00;;;;13060847;22;20237;-72
2022/09/16 23:09:32;;;;;;;10.63;2.30;;;;;9.60;101004.00;;;;13038005;22;20721;-72
2022/09/16 23:14:33;;;;;;;7.97;1.70;;;;;9.60;100999.00;;;;13062513;22;20160;-72
2022/09/16 23:19:35;;;;;;;6.90;1.93;;;;;9.60;100997.00;;;;13063842;22;20463;-72
2022/09/16 23:24:36;;;;;;;8.17;1.77;;;;;9.60;100993.00;;;;13064129;22;20211;-72
2022/09/16 23:29:37;;;;;;;10.27;1.73;;;;;9.60;100990.00;;;;13042385;22;20458;-72
2022/09/16 23:34:39;;;;;;;9.37;2.13;;;;;9.60;101012.00;;;;13063542;22;20160;-72
2022/09/16 23:39:40;;;;;;;14.03;2.20;;;;;9.60;101019.00;;;;13067030;22;20629;-72
2022/09/16 23:44:41;;;;;;;10.03;2.13;;;;;9.70;101013.00;;;;13040006;22;20226;-72
2022/09/16 23:49:42;;;;;;;12.63;2.20;;;;;9.70;101031.00;;;;13014493;22;20175;-72
2022/09/16 23:54:44;;;;;;;10.10;1.73;;;;;9.70;101009.00;;;;13086847;22;20166;-72
2022/09/16 23:59:45;;;;;;;8.27;1.90;;;;;9.70;101005.00;;;;13014949;22;20168;-72
